createdAt,value
2022-12-09T00:00:23.777Z,6.05
2022-12-09T00:04:25.905Z,6.35
2022-12-09T00:08:27.881Z,5.80
2022-12-09T00:12:29.561Z,5.97
2022-12-09T00:16:31.656Z,5.55
2022-12-09T00:20:33.410Z,6.70
2022-12-09T00:24:35.060Z,6.05
2022-12-09T00:28:37.221Z,5.68
2022-12-09T00:32:39.126Z,5.85
2022-12-09T00:36:41.009Z,5.00
2022-12-09T00:40:42.949Z,5.10
2022-12-09T00:44:44.724Z,5.53
2022-12-09T00:48:47.085Z,5.97
2022-12-09T00:52:48.848Z,5.40
2022-12-09T00:56:50.660Z,5.13
2022-12-09T01:00:53.807Z,5.70
2022-12-09T01:04:55.771Z,5.70
2022-12-09T01:08:57.515Z,4.90
2022-12-09T01:12:59.254Z,5.35
2022-12-09T01:17:00.951Z,4.90
2022-12-09T01:21:03.021Z,5.10
2022-12-09T01:25:05.280Z,5.32
2022-12-09T01:29:06.949Z,5.20
2022-12-09T01:33:08.746Z,4.80
2022-12-09T01:37:10.741Z,4.30
2022-12-09T01:41:13.415Z,5.30
2022-12-09T01:45:26.603Z,4.68
2022-12-09T01:49:36.262Z,4.43
2022-12-09T01:53:41.584Z,4.68
2022-12-09T01:57:45.083Z,4.13
2022-12-09T02:01:51.442Z,4.15
2022-12-09T02:05:54.060Z,4.28
2022-12-09T02:09:56.068Z,4.53
2022-12-09T02:14:19.574Z,4.80
2022-12-09T02:18:29.829Z,4.70
2022-12-09T02:22:43.465Z,4.78
2022-12-09T02:27:17.747Z,3.85
2022-12-09T02:31:33.992Z,4.25
2022-12-09T02:35:41.745Z,4.45
2022-12-09T02:39:53.888Z,4.32
2022-12-09T02:44:01.534Z,4.50
2022-12-09T02:48:04.433Z,3.97
2022-12-09T02:52:07.012Z,3.28
2022-12-09T02:56:09.925Z,4.43
2022-12-09T03:00:14.930Z,4.38
2022-12-09T03:04:21.166Z,3.70
2022-12-09T03:08:35.526Z,3.50
2022-12-09T03:12:43.326Z,4.22
2022-12-09T03:17:01.062Z,3.63
2022-12-09T03:21:05.990Z,4.07
2022-12-09T03:25:28.059Z,3.70
2022-12-09T03:29:32.404Z,4.13
2022-12-09T03:33:34.362Z,4.10
2022-12-09T03:37:40.079Z,3.22
2022-12-09T03:41:56.278Z,3.42
2022-12-09T03:45:58.423Z,3.53
2022-12-09T03:50:00.532Z,3.70
2022-12-09T03:54:25.676Z,3.53
2022-12-09T03:58:32.130Z,3.50
2022-12-09T04:02:34.206Z,3.45
2022-12-09T04:06:36.425Z,3.05
2022-12-09T04:10:38.101Z,3.55
2022-12-09T04:14:39.810Z,3.60
2022-12-09T04:18:42.545Z,3.70
2022-12-09T04:22:44.525Z,3.75
2022-12-09T04:26:46.244Z,2.97
2022-12-09T04:30:48.315Z,3.88
2022-12-09T04:34:50.704Z,3.10
2022-12-09T04:38:52.500Z,2.88
2022-12-09T04:42:54.147Z,3.70
2022-12-09T04:46:56.237Z,2.90
2022-12-09T04:50:59.377Z,3.05
2022-12-09T04:55:01.085Z,3.10
2022-12-09T04:59:03.949Z,2.88
2022-12-09T05:03:05.921Z,3.05
2022-12-09T05:07:08.311Z,2.42
2022-12-09T05:11:10.742Z,3.00
2022-12-09T05:15:12.683Z,3.05
2022-12-09T05:19:15.833Z,3.13
2022-12-09T05:23:17.673Z,3.20
2022-12-09T05:27:19.669Z,2.90
2022-12-09T05:31:23.725Z,2.60
2022-12-09T05:35:25.580Z,3.60
2022-12-09T05:39:27.486Z,2.85
2022-12-09T05:43:29.601Z,3.83
2022-12-09T05:47:31.352Z,3.10
2022-12-09T05:51:33.119Z,3.17
2022-12-09T05:55:35.687Z,2.80
2022-12-09T05:59:37.687Z,2.72
2022-12-09T06:03:39.820Z,4.15
2022-12-09T06:07:42.113Z,3.45
2022-12-09T06:11:44.361Z,4.88
2022-12-09T06:15:46.153Z,4.18
2022-12-09T06:19:49.100Z,4.38
2022-12-09T06:23:51.552Z,5.65
2022-12-09T06:27:53.951Z,5.55
2022-12-09T06:31:55.733Z,5.07
2022-12-09T06:36:04.226Z,5.93
2022-12-09T06:40:07.276Z,5.75
2022-12-09T06:44:11.726Z,5.75
2022-12-09T06:48:14.690Z,5.70
2022-12-09T06:52:16.582Z,5.78
2022-12-09T06:56:19.178Z,6.30
2022-12-09T07:00:21.457Z,6.45
2022-12-09T07:04:23.364Z,6.00
2022-12-09T07:08:25.645Z,7.85
2022-12-09T07:12:27.374Z,6.40
2022-12-09T07:16:29.510Z,5.93
2022-12-09T07:20:31.430Z,5.30
2022-12-09T07:24:33.527Z,6.53
2022-12-09T07:28:37.052Z,5.97
2022-12-09T07:32:38.732Z,5.90
2022-12-09T07:36:41.335Z,6.63
2022-12-09T07:40:43.237Z,6.22
2022-12-09T07:44:44.973Z,6.15
2022-12-09T07:48:48.155Z,5.38
2022-12-09T07:52:50.356Z,5.65
2022-12-09T07:56:52.420Z,5.50
2022-12-09T08:00:54.130Z,6.65
2022-12-09T08:04:56.050Z,5.93
2022-12-09T08:08:59.912Z,5.65
2022-12-09T08:13:02.503Z,5.18
2022-12-09T08:17:04.511Z,5.47
2022-12-09T08:21:08.363Z,4.97
2022-12-09T08:25:11.261Z,4.63
2022-12-09T08:29:14.306Z,5.57
2022-12-09T08:33:16.810Z,5.47
2022-12-09T08:37:18.806Z,5.22
2022-12-09T08:41:35.365Z,5.13
2022-12-09T08:45:40.153Z,4.80
2022-12-09T08:49:42.771Z,5.22
2022-12-09T08:53:45.020Z,5.13
2022-12-09T08:57:47.071Z,5.65
2022-12-09T09:01:49.620Z,4.47
2022-12-09T09:05:51.511Z,4.53
2022-12-09T09:09:53.907Z,4.57
2022-12-09T09:13:56.168Z,4.78
2022-12-09T09:17:58.247Z,4.78
2022-12-09T09:22:00.647Z,5.03
2022-12-09T09:26:04.337Z,4.57
2022-12-09T09:30:10.606Z,4.75
2022-12-09T09:38:15.231Z,5.07
2022-12-09T09:42:25.386Z,5.28
2022-12-09T09:46:44.340Z,5.45
2022-12-09T09:51:15.175Z,5.30
2022-12-09T09:55:19.351Z,5.82
2022-12-09T09:59:37.435Z,5.85
2022-12-09T10:04:02.876Z,5.68
2022-12-09T10:08:42.761Z,7.18
2022-12-09T10:13:02.854Z,6.18
2022-12-09T10:17:26.506Z,7.00
2022-12-09T10:21:31.478Z,7.85
2022-12-09T10:25:44.665Z,6.45
2022-12-09T10:29:55.053Z,7.85
2022-12-09T10:33:57.722Z,7.90
2022-12-09T10:38:12.519Z,7.93
2022-12-09T10:42:35.413Z,6.78
2022-12-09T10:46:37.958Z,7.57
2022-12-09T10:50:41.426Z,8.68
2022-12-09T10:54:46.987Z,8.38
2022-12-09T10:58:49.424Z,9.15
2022-12-09T11:02:54.753Z,9.63
2022-12-09T11:07:01.197Z,8.60
2022-12-09T11:11:03.597Z,9.95
2022-12-09T11:15:07.594Z,8.38
2022-12-09T11:19:14.326Z,9.40
2022-12-09T11:23:18.028Z,9.57
2022-12-09T11:27:27.406Z,11.45
2022-12-09T11:31:33.758Z,10.88
2022-12-09T11:35:45.159Z,12.15
2022-12-09T11:39:52.637Z,12.00
2022-12-09T11:43:56.355Z,13.25
2022-12-09T11:48:37.327Z,13.65
2022-12-09T11:52:42.552Z,14.43
2022-12-09T11:56:44.770Z,15.35
2022-12-09T12:00:55.241Z,20.63
2022-12-09T12:05:27.677Z,22.27
2022-12-09T12:09:42.004Z,22.15
2022-12-09T12:13:46.996Z,27.67
2022-12-09T12:17:56.270Z,36.08
2022-12-09T12:22:30.079Z,45.28
2022-12-09T12:27:02.980Z,52.78
2022-12-09T12:31:29.040Z,54.05
2022-12-09T12:35:46.927Z,64.38
2022-12-09T12:39:58.194Z,73.18
2022-12-09T12:44:31.674Z,72.95
2022-12-09T12:48:46.848Z,73.75
2022-12-09T12:53:26.311Z,79.47
2022-12-09T12:58:01.325Z,75.38
2022-12-09T13:02:21.477Z,77.63
2022-12-09T13:06:46.609Z,74.97
2022-12-09T13:10:52.511Z,76.25
2022-12-09T13:14:55.385Z,80.82
2022-12-09T13:19:07.737Z,80.82
2022-12-09T13:23:36.612Z,84.55
2022-12-09T13:27:51.191Z,87.15
2022-12-09T13:32:14.072Z,86.15
2022-12-09T13:36:21.679Z,83.75
2022-12-09T13:40:38.932Z,85.20
2022-12-09T13:44:40.634Z,85.13
2022-12-09T13:48:47.438Z,84.90
2022-12-09T13:52:52.567Z,82.00
2022-12-09T13:57:03.347Z,81.22
2022-12-09T14:01:23.518Z,79.57
2022-12-09T14:05:27.682Z,81.43
2022-12-09T14:09:33.097Z,79.28
2022-12-09T14:13:35.980Z,77.63
2022-12-09T14:17:40.806Z,80.57
2022-12-09T14:21:42.516Z,76.70
2022-12-09T14:25:57.075Z,77.13
2022-12-09T14:30:02.551Z,75.10
2022-12-09T14:34:36.812Z,73.68
2022-12-09T14:39:08.329Z,78.28
2022-12-09T14:43:20.466Z,75.43
2022-12-09T14:47:29.720Z,74.70
2022-12-09T14:51:43.883Z,81.07
2022-12-09T14:55:45.957Z,84.25
2022-12-09T14:59:53.187Z,137.05
2022-12-09T15:03:58.696Z,117.68
2022-12-09T15:08:00.486Z,124.70
2022-12-09T15:12:08.903Z,129.25
2022-12-09T15:16:13.595Z,130.48
2022-12-09T15:20:31.279Z,143.85
2022-12-09T15:24:49.187Z,144.25
2022-12-09T15:28:53.719Z,173.20
2022-12-09T15:32:55.410Z,160.40
2022-12-09T15:37:03.943Z,160.10
2022-12-09T15:41:27.331Z,155.80
2022-12-09T15:45:38.189Z,157.40
2022-12-09T15:49:51.690Z,158.95
2022-12-09T15:54:01.180Z,159.15
2022-12-09T15:58:06.532Z,158.50
2022-12-09T16:02:12.302Z,158.33
2022-12-09T16:06:14.135Z,157.63
2022-12-09T16:10:17.671Z,154.13
2022-12-09T16:14:21.055Z,153.27
2022-12-09T16:18:49.931Z,150.80
2022-12-09T16:22:51.641Z,152.23
2022-12-09T16:26:54.740Z,150.57
2022-12-09T16:31:15.367Z,152.38
2022-12-09T16:35:17.161Z,151.88
2022-12-09T16:39:24.632Z,148.38
2022-12-09T16:43:27.803Z,142.90
2022-12-09T16:47:29.445Z,147.27
2022-12-09T16:51:31.697Z,145.68
2022-12-09T16:55:33.644Z,138.15
2022-12-09T16:59:38.148Z,140.57
2022-12-09T17:03:43.856Z,141.82
2022-12-09T17:07:45.645Z,137.55
2022-12-09T17:11:49.179Z,137.13
2022-12-09T17:15:51.748Z,137.73
2022-12-09T17:19:53.481Z,132.07
2022-12-09T17:23:55.103Z,132.73
2022-12-09T17:27:56.742Z,133.43
2022-12-09T17:31:58.561Z,129.23
2022-12-09T17:36:00.226Z,128.60
2022-12-09T17:40:03.948Z,130.38
2022-12-09T17:44:06.292Z,122.97
2022-12-09T17:48:08.004Z,123.03
2022-12-09T17:52:09.647Z,118.03
2022-12-09T17:56:22.513Z,121.05
2022-12-09T18:00:24.312Z,113.15
2022-12-09T18:04:25.977Z,112.25
2022-12-09T18:08:31.968Z,105.10
2022-12-09T18:12:33.583Z,109.35
2022-12-09T18:16:35.458Z,102.10
2022-12-09T18:20:38.586Z,101.43
2022-12-09T18:24:40.212Z,98.78
2022-12-09T18:28:42.470Z,94.20
2022-12-09T18:32:44.086Z,90.70
2022-12-09T18:36:45.726Z,90.93
2022-12-09T18:41:02.704Z,88.97
2022-12-09T18:45:04.906Z,87.85
2022-12-09T18:49:13.039Z,85.25
2022-12-09T18:53:15.235Z,82.80
2022-12-09T18:57:16.850Z,84.15
2022-12-09T19:01:24.449Z,82.63
2022-12-09T19:05:26.349Z,85.40
2022-12-09T19:09:33.257Z,81.93
2022-12-09T19:13:34.878Z,79.75
2022-12-09T19:17:37.152Z,79.93
2022-12-09T19:21:39.295Z,80.15
2022-12-09T19:25:41.915Z,78.53
2022-12-09T19:29:43.570Z,76.15
2022-12-09T19:33:45.465Z,79.28
2022-12-09T19:37:47.087Z,78.80
2022-12-09T19:41:48.780Z,75.55
2022-12-09T19:45:50.387Z,76.22
2022-12-09T19:49:52.008Z,77.38
2022-12-09T19:53:55.895Z,75.30
2022-12-09T19:57:57.620Z,75.75
2022-12-09T20:01:59.367Z,77.15
2022-12-09T20:06:00.977Z,73.32
2022-12-09T20:10:02.645Z,73.53
2022-12-09T20:14:06.212Z,73.75
2022-12-09T20:18:09.359Z,72.05
2022-12-09T20:22:11.049Z,70.20
2022-12-09T20:26:21.602Z,68.45
2022-12-09T20:30:23.253Z,68.88
2022-12-09T20:34:26.158Z,68.43
2022-12-09T20:38:27.906Z,68.63
2022-12-09T20:42:29.535Z,69.90
2022-12-09T20:46:32.307Z,66.45
2022-12-09T20:50:38.535Z,64.53
2022-12-09T20:54:40.996Z,66.65
2022-12-09T20:58:44.693Z,65.28
2022-12-09T21:02:46.354Z,65.82
2022-12-09T21:06:48.663Z,64.35
2022-12-09T21:10:50.513Z,65.32
2022-12-09T21:14:52.161Z,59.83
2022-12-09T21:18:56.834Z,58.05
2022-12-09T21:23:25.158Z,57.25
2022-12-09T21:27:20.091Z,54.42
2022-12-09T21:31:27.132Z,54.45
2022-12-09T21:35:28.855Z,50.22
2022-12-09T21:39:30.521Z,52.72
2022-12-09T21:43:33.719Z,50.28
2022-12-09T21:47:35.311Z,50.03
2022-12-09T21:51:37.191Z,51.10
2022-12-09T21:55:39.456Z,48.42
2022-12-09T21:59:41.159Z,48.45
2022-12-09T22:03:43.381Z,44.33
2022-12-09T22:07:48.752Z,45.13
2022-12-09T22:11:50.682Z,46.20
2022-12-09T22:15:52.550Z,43.35
2022-12-09T22:20:22.516Z,43.15
2022-12-09T22:24:16.589Z,43.05
2022-12-09T22:28:18.388Z,42.95
2022-12-09T22:32:20.062Z,42.70
2022-12-09T22:36:22.395Z,40.88
2022-12-09T22:40:24.388Z,41.58
2022-12-09T22:44:26.038Z,41.67
2022-12-09T22:48:27.725Z,39.65
2022-12-09T22:52:29.337Z,40.65
2022-12-09T22:56:31.366Z,38.47
2022-12-09T23:00:33.470Z,40.53
2022-12-09T23:04:36.470Z,40.33
2022-12-09T23:08:40.288Z,38.97
2022-12-09T23:12:41.882Z,36.95
2022-12-09T23:16:43.889Z,38.08
2022-12-09T23:20:45.682Z,35.03
2022-12-09T23:24:48.797Z,35.17
2022-12-09T23:28:52.342Z,33.67
2022-12-09T23:32:53.967Z,34.15
2022-12-09T23:36:55.901Z,34.05
2022-12-09T23:40:57.931Z,34.45
2022-12-09T23:44:59.718Z,33.65
2022-12-09T23:49:01.376Z,33.10
2022-12-09T23:53:03.037Z,33.60
2022-12-09T23:57:04.651Z,32.05
